Time;durP1;ratioP1;P1;durP2;ratioP2;P2;SDS_P1;SDS_P2;PMS_P1;PMS_P2;Temp;Humidity;BMP_temperature;BMP_pressure;BME280_temperature;BME280_humidity;BME280_pressure;Samples;Min_cycle;Max_cycle;Signal;HPM_P1;HPM_P2
2023/08/28 00:01:08;;;;;;;4.22;3.83;;;;;;;;;;4989894;28;99056;-72
2023/08/28 00:03:35;;;;;;;3.83;3.50;;;;;;;;;;4988392;28;99200;-73
2023/08/28 00:06:01;;;;;;;4.00;3.70;;;;;;;;;;4989235;28;100178;-72
2023/08/28 00:08:28;;;;;;;11.00;3.88;;;;;;;;;;4988647;28;99276;-73
2023/08/28 00:10:54;;;;;;;5.30;3.95;;;;;;;;;;4988479;28;99705;-72
2023/08/28 00:13:21;;;;;;;4.88;3.33;;;;;;;;;;4998165;28;100190;-72
2023/08/28 00:15:48;;;;;;;4.75;3.47;;;;;;;;;;4994717;28;100249;-72
2023/08/28 00:18:15;;;;;;;3.80;3.50;;;;;;;;;;4988122;28;100147;-72
2023/08/28 00:20:41;;;;;;;4.03;3.50;;;;;;;;;;4988864;28;99977;-73
2023/08/28 00:23:08;;;;;;;4.15;3.65;;;;;;;;;;4988652;28;99784;-72
2023/08/28 00:25:34;;;;;;;3.63;3.40;;;;;;;;;;4988225;28;99441;-72
2023/08/28 00:28:01;;;;;;;12.63;4.15;;;;;;;;;;4989545;28;99684;-72
2023/08/28 00:30:27;;;;;;;7.68;3.65;;;;;;;;;;4987260;28;100133;-73
2023/08/28 00:32:54;;;;;;;3.38;3.13;;;;;;;;;;4987742;28;99912;-71
2023/08/28 00:35:21;;;;;;;8.82;3.63;;;;;;;;;;4990637;28;99165;-73
2023/08/28 00:37:47;;;;;;;4.15;3.65;;;;;;;;;;4988406;28;99669;-71
2023/08/28 00:40:16;;;;;;;3.55;3.33;;;;;;;;;;4987812;28;98733;-73
2023/08/28 00:42:42;;;;;;;4.53;3.30;;;;;;;;;;4988594;28;98830;-72
2023/08/28 00:45:10;;;;;;;6.05;3.22;;;;;;;;;;4987315;28;101995;-72
2023/08/28 00:47:37;;;;;;;4.53;3.00;;;;;;;;;;4997159;28;101117;-72
2023/08/28 00:50:04;;;;;;;6.85;3.90;;;;;;;;;;5011245;28;100276;-74
2023/08/28 00:52:31;;;;;;;3.45;3.25;;;;;;;;;;5007932;28;99686;-72
2023/08/28 00:54:58;;;;;;;4.60;2.92;;;;;;;;;;5012583;28;98920;-72
2023/08/28 00:57:24;;;;;;;5.50;3.28;;;;;;;;;;5011509;28;100770;-72
2023/08/28 00:59:51;;;;;;;8.55;3.83;;;;;;;;;;5006729;28;101916;-72
2023/08/28 01:02:17;;;;;;;9.10;3.00;;;;;;;;;;5008391;28;98909;-72
2023/08/28 01:04:44;;;;;;;5.55;3.67;;;;;;;;;;5006002;28;100173;-73
2023/08/28 01:07:30;;;;;;;3.13;2.85;;;;;;;;;;4990378;28;98548;-71
2023/08/28 01:09:57;;;;;;;6.60;3.42;;;;;;;;;;5010367;28;102179;-73
2023/08/28 01:12:47;;;;;;;3.20;2.90;;;;;;;;;;5011269;28;100092;-72
2023/08/28 01:15:17;;;;;;;4.32;3.28;;;;;;;;;;5001163;28;102054;-72
2023/08/28 01:17:46;;;;;;;2.97;2.50;;;;;;;;;;5008156;28;98497;-73
2023/08/28 01:20:15;;;;;;;8.27;2.90;;;;;;;;;;5010909;28;100629;-72
2023/08/28 01:22:59;;;;;;;3.20;2.72;;;;;;;;;;4995397;28;101813;-72
2023/08/28 01:25:26;;;;;;;3.50;3.20;;;;;;;;;;4987450;28;99255;-73
2023/08/28 01:27:53;;;;;;;4.55;3.45;;;;;;;;;;4987021;28;100801;-72
2023/08/28 01:30:20;;;;;;;3.40;3.10;;;;;;;;;;4969923;28;101786;-72
2023/08/28 01:32:47;;;;;;;5.63;3.50;;;;;;;;;;4987008;28;102445;-72
2023/08/28 01:35:15;;;;;;;6.47;3.17;;;;;;;;;;4986875;28;99925;-72
2023/08/28 01:37:50;;;;;;;3.15;2.83;;;;;;;;;;4987895;28;99420;-73
2023/08/28 01:40:17;;;;;;;4.63;2.95;;;;;;;;;;4992563;28;98741;-73
2023/08/28 01:42:45;;;;;;;3.90;3.05;;;;;;;;;;5010505;28;98917;-73
2023/08/28 01:45:11;;;;;;;6.53;2.75;;;;;;;;;;5006435;28;101057;-71
2023/08/28 01:47:38;;;;;;;3.55;2.95;;;;;;;;;;5006465;28;101657;-73
2023/08/28 01:50:05;;;;;;;3.30;3.05;;;;;;;;;;5008088;28;99535;-73
2023/08/28 01:52:31;;;;;;;3.67;2.65;;;;;;;;;;5006929;28;100187;-74
2023/08/28 01:54:57;;;;;;;4.47;2.78;;;;;;;;;;5007180;28;101120;-73
2023/08/28 01:57:24;;;;;;;5.00;3.78;;;;;;;;;;4987047;28;101536;-72
2023/08/28 01:59:50;;;;;;;3.13;2.92;;;;;;;;;;4985503;28;100365;-72
2023/08/28 02:02:17;;;;;;;4.30;2.75;;;;;;;;;;4990048;28;100279;-72
2023/08/28 02:04:47;;;;;;;4.95;3.20;;;;;;;;;;4986586;28;99903;-71
2023/08/28 02:07:13;;;;;;;6.85;3.03;;;;;;;;;;4987186;28;101698;-74
2023/08/28 02:09:40;;;;;;;4.80;2.90;;;;;;;;;;4988844;28;99167;-73
2023/08/28 02:12:06;;;;;;;3.28;3.08;;;;;;;;;;4986244;28;102292;-72
2023/08/28 02:14:33;;;;;;;5.65;3.90;;;;;;;;;;4974180;28;99374;-70
2023/08/28 02:16:59;;;;;;;4.55;3.40;;;;;;;;;;4985247;28;101905;-72
2023/08/28 02:19:28;;;;;;;3.83;3.22;;;;;;;;;;4985475;28;100224;-72
2023/08/28 02:21:54;;;;;;;7.10;3.22;;;;;;;;;;4985590;28;101321;-72
2023/08/28 02:24:21;;;;;;;4.57;3.30;;;;;;;;;;4988431;28;101993;-72
2023/08/28 02:26:47;;;;;;;4.50;2.88;;;;;;;;;;4987179;28;98827;-73
2023/08/28 02:29:14;;;;;;;4.65;3.10;;;;;;;;;;4986814;28;101650;-71
2023/08/28 02:31:40;;;;;;;4.40;3.53;;;;;;;;;;5006435;28;99110;-72
2023/08/28 02:34:06;;;;;;;3.35;2.95;;;;;;;;;;5012208;28;99040;-72
2023/08/28 02:36:33;;;;;;;5.65;3.35;;;;;;;;;;5012756;28;99520;-72
2023/08/28 02:38:59;;;;;;;3.72;2.70;;;;;;;;;;5012779;28;100584;-73
2023/08/28 02:41:26;;;;;;;2.88;2.67;;;;;;;;;;5012986;28;99120;-72
2023/08/28 02:43:52;;;;;;;4.05;3.28;;;;;;;;;;5013686;28;98741;-71
2023/08/28 02:46:19;;;;;;;3.67;3.38;;;;;;;;;;5015142;28;99395;-72
2023/08/28 02:48:45;;;;;;;4.60;3.20;;;;;;;;;;5012172;28;101457;-71
2023/08/28 02:51:12;;;;;;;4.90;3.13;;;;;;;;;;5011420;28;99359;-71
2023/08/28 02:53:40;;;;;;;7.45;3.50;;;;;;;;;;5012000;28;98977;-72
2023/08/28 02:56:23;;;;;;;5.88;3.53;;;;;;;;;;5013759;28;98458;-71
2023/08/28 02:58:51;;;;;;;3.55;3.15;;;;;;;;;;5013620;28;99067;-72
2023/08/28 03:01:18;;;;;;;3.25;3.10;;;;;;;;;;5012341;28;101279;-72
2023/08/28 03:03:47;;;;;;;5.85;3.35;;;;;;;;;;4993725;28;101846;-73
2023/08/28 03:06:13;;;;;;;4.63;3.60;;;;;;;;;;4995852;28;100931;-73
2023/08/28 03:08:40;;;;;;;6.57;3.90;;;;;;;;;;4997978;28;100008;-73
2023/08/28 03:11:06;;;;;;;3.53;3.33;;;;;;;;;;4993698;28;99210;-71
2023/08/28 03:13:33;;;;;;;4.25;3.92;;;;;;;;;;4991170;28;100071;-71
2023/08/28 03:16:00;;;;;;;3.95;3.63;;;;;;;;;;4991464;28;101174;-72
2023/08/28 03:18:27;;;;;;;4.75;4.18;;;;;;;;;;4993447;28;98619;-72
2023/08/28 03:20:54;;;;;;;4.00;3.70;;;;;;;;;;4991851;28;99888;-72
2023/08/28 03:23:21;;;;;;;9.85;3.80;;;;;;;;;;4991981;28;101716;-72
2023/08/28 03:25:48;;;;;;;4.18;3.60;;;;;;;;;;4992622;28;100920;-72
2023/08/28 03:28:15;;;;;;;5.65;3.80;;;;;;;;;;4992098;28;99988;-73
2023/08/28 03:30:42;;;;;;;10.20;3.40;;;;;;;;;;4996223;28;99424;-72
2023/08/28 03:33:08;;;;;;;4.10;3.80;;;;;;;;;;4991873;28;101752;-71
2023/08/28 03:35:35;;;;;;;7.40;3.63;;;;;;;;;;4990715;28;99858;-72
2023/08/28 03:38:01;;;;;;;9.18;4.57;;;;;;;;;;4993590;28;100103;-73
2023/08/28 03:40:28;;;;;;;6.55;4.95;;;;;;;;;;4991152;28;99242;-71
2023/08/28 03:42:54;;;;;;;7.43;4.88;;;;;;;;;;4992770;28;100067;-72
2023/08/28 03:45:22;;;;;;;5.97;5.30;;;;;;;;;;4987751;28;101741;-73
2023/08/28 03:47:49;;;;;;;11.38;5.47;;;;;;;;;;4988360;28;100938;-73
2023/08/28 03:50:16;;;;;;;5.82;5.03;;;;;;;;;;4988482;28;99102;-71
2023/08/28 03:52:42;;;;;;;6.15;5.55;;;;;;;;;;4991770;28;101885;-72
2023/08/28 03:55:09;;;;;;;7.55;5.60;;;;;;;;;;4998178;28;98873;-71
2023/08/28 03:57:36;;;;;;;5.03;4.65;;;;;;;;;;5007743;28;101719;-73
2023/08/28 04:00:06;;;;;;;7.03;5.50;;;;;;;;;;5010163;28;98951;-73
2023/08/28 04:02:39;;;;;;;12.73;5.20;;;;;;;;;;5006908;28;98665;-72
2023/08/28 04:05:06;;;;;;;6.85;5.80;;;;;;;;;;5008127;28;102391;-72
2023/08/28 04:07:37;;;;;;;11.43;5.10;;;;;;;;;;5008572;28;98018;-72
2023/08/28 04:10:04;;;;;;;8.80;5.70;;;;;;;;;;5006804;28;100579;-72
2023/08/28 04:12:31;;;;;;;13.68;5.28;;;;;;;;;;5009509;28;100987;-72
2023/08/28 04:14:58;;;;;;;9.55;5.13;;;;;;;;;;5008334;28;100949;-72
2023/08/28 04:17:25;;;;;;;6.53;5.93;;;;;;;;;;5008066;28;99167;-72
2023/08/28 04:19:52;;;;;;;7.38;5.70;;;;;;;;;;5009144;28;98986;-72
2023/08/28 04:22:19;;;;;;;8.23;5.57;;;;;;;;;;5007544;28;99145;-72
2023/08/28 04:24:45;;;;;;;6.57;5.60;;;;;;;;;;5006745;28;101986;-72
2023/08/28 04:27:12;;;;;;;5.95;5.40;;;;;;;;;;5007391;28;101665;-72
2023/08/28 04:29:40;;;;;;;6.53;5.88;;;;;;;;;;5006596;28;101808;-72
2023/08/28 04:32:06;;;;;;;7.65;5.57;;;;;;;;;;5007157;28;101158;-72
2023/08/28 04:34:33;;;;;;;7.20;5.68;;;;;;;;;;5011866;28;98906;-72
2023/08/28 04:36:59;;;;;;;8.98;5.85;;;;;;;;;;5008621;28;99153;-73
2023/08/28 04:39:27;;;;;;;8.32;5.53;;;;;;;;;;5006008;28;99283;-72
2023/08/28 04:41:54;;;;;;;6.55;5.40;;;;;;;;;;4989315;28;102133;-71
2023/08/28 04:44:20;;;;;;;8.25;5.88;;;;;;;;;;4987105;28;101963;-72
2023/08/28 04:46:48;;;;;;;7.30;5.53;;;;;;;;;;4988271;28;99104;-73
2023/08/28 04:49:15;;;;;;;7.78;5.95;;;;;;;;;;4987202;28;99267;-73
2023/08/28 04:51:41;;;;;;;8.05;6.18;;;;;;;;;;4986627;28;101176;-72
2023/08/28 04:54:08;;;;;;;6.32;5.72;;;;;;;;;;4987054;28;101305;-72
2023/08/28 04:56:36;;;;;;;6.18;5.68;;;;;;;;;;4992111;28;98713;-72
2023/08/28 04:59:03;;;;;;;6.95;5.85;;;;;;;;;;4986341;28;101705;-73
2023/08/28 05:01:29;;;;;;;8.70;6.50;;;;;;;;;;4987300;28;99075;-73
2023/08/28 05:03:56;;;;;;;6.07;5.50;;;;;;;;;;5001307;28;100080;-72
2023/08/28 05:06:23;;;;;;;7.00;6.30;;;;;;;;;;5007688;28;101157;-72
2023/08/28 05:08:49;;;;;;;6.40;5.38;;;;;;;;;;5006925;28;101668;-72
2023/08/28 05:11:16;;;;;;;6.13;5.35;;;;;;;;;;5007872;28;99287;-73
2023/08/28 05:13:43;;;;;;;8.95;5.03;;;;;;;;;;5006004;28;101805;-72
2023/08/28 05:16:09;;;;;;;7.07;6.45;;;;;;;;;;5007847;28;99301;-72
2023/08/28 05:18:36;;;;;;;5.82;4.93;;;;;;;;;;5009878;28;103065;-72
2023/08/28 05:21:02;;;;;;;6.45;5.95;;;;;;;;;;5005404;28;102467;-71
2023/08/28 05:23:29;;;;;;;5.85;5.35;;;;;;;;;;5006256;28;100289;-73
2023/08/28 05:25:56;;;;;;;7.60;5.82;;;;;;;;;;5007640;28;99959;-72
2023/08/28 05:28:22;;;;;;;7.38;6.13;;;;;;;;;;5006768;28;99474;-73
2023/08/28 05:30:49;;;;;;;5.25;4.75;;;;;;;;;;5006368;28;99562;-72
2023/08/28 05:33:15;;;;;;;7.00;5.97;;;;;;;;;;5007249;28;99462;-74
2023/08/28 05:35:42;;;;;;;5.57;5.07;;;;;;;;;;5005687;28;99038;-73
2023/08/28 05:38:10;;;;;;;8.13;5.55;;;;;;;;;;4988862;28;101887;-72
2023/08/28 05:40:37;;;;;;;5.43;5.00;;;;;;;;;;4982515;28;100858;-71
2023/08/28 05:43:03;;;;;;;5.70;4.88;;;;;;;;;;4983032;28;100109;-72
2023/08/28 05:45:32;;;;;;;6.03;5.53;;;;;;;;;;4970789;28;99468;-72
2023/08/28 05:48:00;;;;;;;5.50;4.93;;;;;;;;;;4968544;28;98920;-73
2023/08/28 05:50:26;;;;;;;8.02;6.28;;;;;;;;;;5008265;28;101149;-73
2023/08/28 05:52:53;;;;;;;6.50;4.30;;;;;;;;;;4986193;28;101666;-74
2023/08/28 05:55:19;;;;;;;7.90;5.07;;;;;;;;;;4987033;28;100875;-73
2023/08/28 05:57:46;;;;;;;10.52;4.93;;;;;;;;;;4987710;28;100369;-73
2023/08/28 06:00:13;;;;;;;5.05;4.65;;;;;;;;;;4988042;28;101549;-73
2023/08/28 06:02:41;;;;;;;4.90;4.53;;;;;;;;;;4988867;28;101941;-73
2023/08/28 06:05:08;;;;;;;5.32;4.35;;;;;;;;;;4986273;28;101155;-73
2023/08/28 06:07:35;;;;;;;6.93;5.00;;;;;;;;;;4986271;28;98831;-73
2023/08/28 06:10:02;;;;;;;8.02;5.13;;;;;;;;;;4986977;28;98185;-73
2023/08/28 06:12:29;;;;;;;5.10;4.70;;;;;;;;;;4986433;28;102250;-73
2023/08/28 06:14:55;;;;;;;5.10;4.70;;;;;;;;;;4985602;28;101692;-73
2023/08/28 06:17:23;;;;;;;7.03;4.28;;;;;;;;;;4975555;28;100070;-73
2023/08/28 06:19:50;;;;;;;6.35;4.45;;;;;;;;;;4974663;28;98969;-72
2023/08/28 06:22:17;;;;;;;29.77;4.35;;;;;;;;;;4986605;28;99500;-72
2023/08/28 06:24:43;;;;;;;7.07;4.20;;;;;;;;;;4972366;28;100509;-71
2023/08/28 06:27:10;;;;;;;4.15;3.80;;;;;;;;;;4970674;28;101091;-71
2023/08/28 06:29:36;;;;;;;7.85;4.13;;;;;;;;;;4978295;28;99433;-73
2023/08/28 06:32:03;;;;;;;7.93;3.95;;;;;;;;;;4973603;28;99926;-73
2023/08/28 06:34:29;;;;;;;3.45;3.15;;;;;;;;;;4967331;28;99889;-73
2023/08/28 06:36:56;;;;;;;5.85;3.53;;;;;;;;;;4968358;28;99427;-72
2023/08/28 06:39:23;;;;;;;4.88;3.08;;;;;;;;;;4965930;28;99898;-73
2023/08/28 06:41:49;;;;;;;3.30;3.10;;;;;;;;;;4966557;28;100194;-72
2023/08/28 06:44:19;;;;;;;11.00;3.65;;;;;;;;;;4992104;28;100067;-71
2023/08/28 06:46:45;;;;;;;3.45;3.13;;;;;;;;;;4986128;28;98920;-74
2023/08/28 06:49:13;;;;;;;3.25;2.78;;;;;;;;;;4986074;28;99356;-72
2023/08/28 06:51:40;;;;;;;3.22;3.03;;;;;;;;;;4985722;28;98976;-72
2023/08/28 06:54:06;;;;;;;4.63;3.25;;;;;;;;;;4987172;28;100812;-73
2023/08/28 06:56:32;;;;;;;4.38;3.28;;;;;;;;;;4987676;28;100078;-73
2023/08/28 06:58:59;;;;;;;3.58;2.55;;;;;;;;;;4987279;28;99423;-73
2023/08/28 07:01:25;;;;;;;5.05;2.72;;;;;;;;;;4986368;28;98939;-73
2023/08/28 07:03:52;;;;;;;7.85;3.05;;;;;;;;;;4971382;28;100821;-73
2023/08/28 07:06:19;;;;;;;3.05;2.55;;;;;;;;;;4969022;28;99264;-74
2023/08/28 07:08:45;;;;;;;4.18;3.08;;;;;;;;;;4967058;28;99575;-73
2023/08/28 07:11:11;;;;;;;2.53;2.33;;;;;;;;;;4966466;28;100047;-74
2023/08/28 07:13:38;;;;;;;3.65;2.13;;;;;;;;;;4965820;28;99923;-73
2023/08/28 07:16:05;;;;;;;9.38;2.72;;;;;;;;;;4966443;28;100562;-73
2023/08/28 07:18:32;;;;;;;6.38;2.35;;;;;;;;;;4966180;28;99546;-72
2023/08/28 07:20:58;;;;;;;2.30;2.10;;;;;;;;;;4969511;28;98992;-73
2023/08/28 07:23:25;;;;;;;3.47;2.30;;;;;;;;;;4971318;28;98739;-72
2023/08/28 07:25:52;;;;;;;3.08;2.30;;;;;;;;;;4989430;28;99542;-73
2023/08/28 07:28:19;;;;;;;2.90;2.10;;;;;;;;;;4991970;28;99997;-73
2023/08/28 07:30:45;;;;;;;5.80;2.30;;;;;;;;;;4989239;28;100070;-73
2023/08/28 07:33:12;;;;;;;4.25;2.30;;;;;;;;;;4989323;28;100922;-72
2023/08/28 07:35:42;;;;;;;4.25;2.33;;;;;;;;;;4988651;28;99475;-72
2023/08/28 07:38:08;;;;;;;3.15;1.90;;;;;;;;;;4989555;28;98947;-73
2023/08/28 07:40:35;;;;;;;2.35;2.10;;;;;;;;;;4987908;28;99091;-73
2023/08/28 07:43:02;;;;;;;3.30;1.67;;;;;;;;;;4989379;28;100274;-72
2023/08/28 07:45:30;;;;;;;1.55;1.45;;;;;;;;;;4989107;28;99902;-74
2023/08/28 07:47:56;;;;;;;6.32;1.80;;;;;;;;;;4989175;28;99972;-72
2023/08/28 07:50:23;;;;;;;2.08;1.33;;;;;;;;;;4991995;28;99611;-72
2023/08/28 07:52:49;;;;;;;2.63;1.52;;;;;;;;;;4989375;28;99932;-73
2023/08/28 07:55:16;;;;;;;21.67;3.60;;;;;;;;;;4987192;28;100744;-72
2023/08/28 07:57:42;;;;;;;3.67;1.25;;;;;;;;;;4989509;28;100175;-73
2023/08/28 08:00:13;;;;;;;1.67;1.45;;;;;;;;;;4989218;28;100555;-73
2023/08/28 08:02:40;;;;;;;2.08;1.23;;;;;;;;;;4987280;28;99101;-72
2023/08/28 08:05:10;;;;;;;1.40;1.35;;;;;;;;;;4989006;28;98524;-73
2023/08/28 08:07:39;;;;;;;1.08;1.00;;;;;;;;;;4988925;28;99930;-72
2023/08/28 08:10:09;;;;;;;2.17;0.90;;;;;;;;;;4988328;28;100347;-72
2023/08/28 08:12:36;;;;;;;1.13;0.80;;;;;;;;;;4992530;28;98264;-72
2023/08/28 08:15:03;;;;;;;3.17;1.10;;;;;;;;;;4989473;28;98976;-73
2023/08/28 08:17:29;;;;;;;1.55;1.25;;;;;;;;;;4987856;28;99022;-72
2023/08/28 08:19:56;;;;;;;1.52;1.00;;;;;;;;;;4988991;28;100385;-73
2023/08/28 08:22:22;;;;;;;2.38;0.70;;;;;;;;;;4987903;28;99777;-74
2023/08/28 08:24:49;;;;;;;1.58;0.80;;;;;;;;;;4987957;28;99879;-72
2023/08/28 08:27:15;;;;;;;1.60;1.40;;;;;;;;;;4989107;28;99203;-72
2023/08/28 08:29:42;;;;;;;1.58;0.80;;;;;;;;;;4987858;28;100126;-72
2023/08/28 08:32:09;;;;;;;3.60;1.00;;;;;;;;;;4991311;28;99142;-73
2023/08/28 08:34:36;;;;;;;0.73;0.73;;;;;;;;;;4988183;28;100123;-72
2023/08/28 08:37:02;;;;;;;5.25;1.05;;;;;;;;;;4988312;28;100207;-73
2023/08/28 08:39:29;;;;;;;3.60;1.05;;;;;;;;;;4988616;28;98451;-72
2023/08/28 08:41:55;;;;;;;2.17;0.95;;;;;;;;;;4988467;28;100545;-73
2023/08/28 08:44:22;;;;;;;2.05;0.77;;;;;;;;;;4968235;28;99225;-73
2023/08/28 08:46:49;;;;;;;1.65;1.02;;;;;;;;;;4968200;28;102011;-72
2023/08/28 08:49:24;;;;;;;2.42;0.80;;;;;;;;;;4968526;28;99470;-74
2023/08/28 08:51:51;;;;;;;1.13;0.52;;;;;;;;;;4967826;28;100188;-73
2023/08/28 08:54:19;;;;;;;0.60;0.60;;;;;;;;;;4971694;28;99888;-73
2023/08/28 08:56:48;;;;;;;3.30;0.82;;;;;;;;;;4968463;28;99899;-73
2023/08/28 08:59:15;;;;;;;3.45;0.90;;;;;;;;;;4967249;28;99827;-73
2023/08/28 09:01:41;;;;;;;0.98;0.93;;;;;;;;;;4968901;28;98724;-73
2023/08/28 09:04:08;;;;;;;1.83;0.77;;;;;;;;;;4983258;28;100041;-72
2023/08/28 09:06:36;;;;;;;1.90;1.08;;;;;;;;;;4987002;28;100029;-72
2023/08/28 09:09:06;;;;;;;3.47;1.25;;;;;;;;;;4987597;28;100970;-73
2023/08/28 09:11:32;;;;;;;1.20;0.90;;;;;;;;;;4987650;28;99879;-73
2023/08/28 09:13:59;;;;;;;1.98;1.08;;;;;;;;;;4976574;28;99943;-73
2023/08/28 09:16:25;;;;;;;1.80;0.80;;;;;;;;;;4971425;28;100237;-74
2023/08/28 09:18:52;;;;;;;0.77;0.77;;;;;;;;;;4978760;28;100128;-73
2023/08/28 09:21:18;;;;;;;3.17;1.13;;;;;;;;;;4987592;28;100449;-73
2023/08/28 09:23:50;;;;;;;1.35;0.98;;;;;;;;;;4986122;28;100070;-73
2023/08/28 09:26:23;;;;;;;1.83;0.90;;;;;;;;;;4986760;28;99869;-72
2023/08/28 09:28:57;;;;;;;4.18;1.30;;;;;;;;;;4987629;28;99453;-73
2023/08/28 09:31:26;;;;;;;1.85;0.80;;;;;;;;;;4987229;28;98497;-74
2023/08/28 09:33:53;;;;;;;1.05;0.73;;;;;;;;;;4986535;28;99220;-72
2023/08/28 09:36:35;;;;;;;1.20;1.00;;;;;;;;;;4987471;28;100610;-73
2023/08/28 09:39:03;;;;;;;0.75;0.70;;;;;;;;;;4991202;28;98946;-73
2023/08/28 09:41:43;;;;;;;1.35;0.77;;;;;;;;;;4986194;28;101035;-72
2023/08/28 09:44:10;;;;;;;1.63;0.75;;;;;;;;;;4986612;28;99801;-72
2023/08/28 09:46:37;;;;;;;1.33;0.90;;;;;;;;;;4987399;28;100062;-72
2023/08/28 09:49:04;;;;;;;2.15;0.60;;;;;;;;;;4968479;28;99827;-72
2023/08/28 09:51:39;;;;;;;1.30;0.77;;;;;;;;;;4967905;28;101654;-72
2023/08/28 09:54:06;;;;;;;1.17;0.70;;;;;;;;;;4967827;28;99969;-74
2023/08/28 09:56:33;;;;;;;1.25;0.88;;;;;;;;;;4967225;28;100353;-74
2023/08/28 09:59:06;;;;;;;0.50;0.47;;;;;;;;;;4966950;28;100121;-72
2023/08/28 10:01:34;;;;;;;1.15;0.70;;;;;;;;;;4969701;28;100838;-73
2023/08/28 10:04:03;;;;;;;1.10;0.52;;;;;;;;;;4967358;28;99908;-74
2023/08/28 10:06:31;;;;;;;1.73;0.60;;;;;;;;;;4967031;28;99994;-74
2023/08/28 10:08:58;;;;;;;0.60;0.60;;;;;;;;;;4965871;28;100217;-72
2023/08/28 10:11:33;;;;;;;0.47;0.47;;;;;;;;;;4967097;28;99926;-73
2023/08/28 10:14:00;;;;;;;1.10;0.63;;;;;;;;;;4966735;28;100273;-71
2023/08/28 10:16:29;;;;;;;1.42;0.70;;;;;;;;;;4966891;28;99751;-72
2023/08/28 10:19:03;;;;;;;2.58;0.90;;;;;;;;;;4966935;28;99346;-73
2023/08/28 10:21:30;;;;;;;0.55;0.40;;;;;;;;;;4970227;28;100108;-72
2023/08/28 10:23:57;;;;;;;1.02;0.55;;;;;;;;;;4965887;28;100484;-72
2023/08/28 10:26:25;;;;;;;2.67;0.70;;;;;;;;;;4966938;28;100551;-71
2023/08/28 10:28:52;;;;;;;1.40;0.80;;;;;;;;;;4967124;28;99222;-72
2023/08/28 10:31:19;;;;;;;7.93;0.95;;;;;;;;;;4966051;28;99049;-72
2023/08/28 10:33:46;;;;;;;2.63;0.90;;;;;;;;;;4967431;28;99877;-74
2023/08/28 10:36:13;;;;;;;0.63;0.63;;;;;;;;;;4966714;28;100136;-73
2023/08/28 10:39:00;;;;;;;0.90;0.80;;;;;;;;;;4967121;28;99926;-74
2023/08/28 10:41:28;;;;;;;1.10;0.60;;;;;;;;;;4967009;28;99268;-72
2023/08/28 10:43:54;;;;;;;4.50;0.63;;;;;;;;;;4969523;28;100340;-72
2023/08/28 10:46:21;;;;;;;2.40;0.82;;;;;;;;;;4966853;28;100344;-72
2023/08/28 10:48:48;;;;;;;1.77;1.00;;;;;;;;;;4966509;28;100987;-73
2023/08/28 10:51:14;;;;;;;5.53;1.00;;;;;;;;;;4966075;28;99999;-72
2023/08/28 10:53:42;;;;;;;0.60;0.60;;;;;;;;;;4967126;28;99991;-73
2023/08/28 10:56:10;;;;;;;4.20;0.70;;;;;;;;;;4970270;28;100130;-73
2023/08/28 10:58:37;;;;;;;1.05;0.88;;;;;;;;;;4969443;28;99945;-72
2023/08/28 11:01:14;;;;;;;4.13;0.90;;;;;;;;;;4970346;28;98722;-71
2023/08/28 11:03:57;;;;;;;0.82;0.80;;;;;;;;;;4970122;28;100253;-72
2023/08/28 11:06:40;;;;;;;3.45;1.00;;;;;;;;;;4972959;28;99936;-71
2023/08/28 11:09:26;;;;;;;1.48;0.68;;;;;;;;;;4970363;28;99458;-71
2023/08/28 11:11:58;;;;;;;1.70;0.90;;;;;;;;;;4969513;28;99884;-72
2023/08/28 11:14:31;;;;;;;1.88;0.80;;;;;;;;;;4968825;28;99887;-72
2023/08/28 11:17:05;;;;;;;2.10;0.70;;;;;;;;;;4969780;28;99299;-72
2023/08/28 11:19:31;;;;;;;1.65;0.85;;;;;;;;;;4968961;28;100707;-72
2023/08/28 11:21:58;;;;;;;1.95;1.15;;;;;;;;;;4970640;28;98871;-72
2023/08/28 11:24:25;;;;;;;0.52;0.52;;;;;;;;;;4968809;28;100093;-72
2023/08/28 11:26:54;;;;;;;0.73;0.60;;;;;;;;;;4969166;28;99872;-72
2023/08/28 11:29:33;;;;;;;0.65;0.50;;;;;;;;;;4973149;28;99789;-74
2023/08/28 11:32:01;;;;;;;0.93;0.60;;;;;;;;;;4970121;28;98971;-72
2023/08/28 11:34:28;;;;;;;1.98;0.80;;;;;;;;;;4968720;28;99518;-71
2023/08/28 11:36:55;;;;;;;0.77;0.77;;;;;;;;;;4971969;28;100565;-73
2023/08/28 11:39:23;;;;;;;0.50;0.50;;;;;;;;;;4970887;28;99214;-72
2023/08/28 11:41:50;;;;;;;1.52;0.60;;;;;;;;;;4968512;28;100581;-72
2023/08/28 11:44:16;;;;;;;1.15;0.63;;;;;;;;;;4969744;28;99493;-73
2023/08/28 11:46:43;;;;;;;1.75;0.73;;;;;;;;;;4969592;28;100439;-72
2023/08/28 11:49:10;;;;;;;0.75;0.63;;;;;;;;;;4969212;28;101764;-72
2023/08/28 11:51:37;;;;;;;1.05;0.60;;;;;;;;;;4973500;28;99614;-71
2023/08/28 11:54:03;;;;;;;1.45;0.63;;;;;;;;;;4970527;28;98844;-73
2023/08/28 11:56:34;;;;;;;0.50;0.50;;;;;;;;;;4969174;28;99430;-72
2023/08/28 11:59:00;;;;;;;0.40;0.40;;;;;;;;;;4989955;28;99200;-73
2023/08/28 12:01:29;;;;;;;0.30;0.30;;;;;;;;;;4988304;28;99029;-73
2023/08/28 12:03:59;;;;;;;2.00;0.70;;;;;;;;;;4988370;28;100780;-72
2023/08/28 12:06:29;;;;;;;0.55;0.55;;;;;;;;;;4988032;28;100104;-73
2023/08/28 12:08:55;;;;;;;0.57;0.52;;;;;;;;;;4988324;28;98772;-72
2023/08/28 12:11:22;;;;;;;1.40;0.40;;;;;;;;;;4989006;28;99455;-72
2023/08/28 12:13:54;;;;;;;0.77;0.60;;;;;;;;;;4992133;28;100185;-72
2023/08/28 12:16:22;;;;;;;2.67;0.80;;;;;;;;;;4987998;28;99327;-73
2023/08/28 12:18:50;;;;;;;1.20;0.70;;;;;;;;;;4988763;28;100035;-73
2023/08/28 12:21:18;;;;;;;2.33;0.63;;;;;;;;;;4989063;28;99843;-72
2023/08/28 12:23:49;;;;;;;0.40;0.40;;;;;;;;;;4988096;28;99282;-73
2023/08/28 12:26:16;;;;;;;3.58;0.70;;;;;;;;;;4988804;28;98791;-72
2023/08/28 12:28:42;;;;;;;2.03;0.75;;;;;;;;;;4988291;28;100085;-72
2023/08/28 12:31:10;;;;;;;2.33;0.80;;;;;;;;;;4988087;28;99324;-72
2023/08/28 12:33:44;;;;;;;0.75;0.50;;;;;;;;;;4992097;28;98794;-72
2023/08/28 12:36:11;;;;;;;1.05;0.80;;;;;;;;;;4987800;28;100248;-73
2023/08/28 12:38:47;;;;;;;2.10;0.90;;;;;;;;;;4988372;28;99938;-72
2023/08/28 12:41:14;;;;;;;1.73;0.73;;;;;;;;;;4987977;28;98986;-73
2023/08/28 12:43:40;;;;;;;0.40;0.40;;;;;;;;;;4987517;28;100157;-72
2023/08/28 12:46:07;;;;;;;7.40;0.73;;;;;;;;;;4988645;28;98987;-72
2023/08/28 12:48:33;;;;;;;0.77;0.77;;;;;;;;;;4988237;28;98886;-73
2023/08/28 12:51:00;;;;;;;1.02;0.70;;;;;;;;;;4987451;28;100411;-71
2023/08/28 12:53:26;;;;;;;0.40;0.40;;;;;;;;;;4987864;28;99212;-72
2023/08/28 12:55:53;;;;;;;1.75;0.60;;;;;;;;;;4991586;28;100654;-72
2023/08/28 12:58:19;;;;;;;1.50;0.63;;;;;;;;;;4987093;28;99030;-72
2023/08/28 13:00:48;;;;;;;0.52;0.52;;;;;;;;;;4988359;28;101007;-73
2023/08/28 13:03:15;;;;;;;2.10;0.70;;;;;;;;;;4987827;28;100216;-73
2023/08/28 13:05:41;;;;;;;0.95;0.70;;;;;;;;;;4987263;28;99929;-73
2023/08/28 13:08:08;;;;;;;0.60;0.60;;;;;;;;;;4987942;28;98866;-72
2023/08/28 13:10:35;;;;;;;1.73;0.88;;;;;;;;;;4988770;28;98813;-72
2023/08/28 13:13:02;;;;;;;0.82;0.60;;;;;;;;;;4987161;28;100217;-72
2023/08/28 13:15:29;;;;;;;1.88;0.68;;;;;;;;;;5019347;28;101491;-72
2023/08/28 13:17:55;;;;;;;2.10;0.73;;;;;;;;;;4990560;28;100757;-73
2023/08/28 13:20:27;;;;;;;1.92;0.80;;;;;;;;;;4986918;28;100144;-72
2023/08/28 13:22:53;;;;;;;1.73;0.82;;;;;;;;;;4987721;28;99716;-73
2023/08/28 13:25:20;;;;;;;4.45;0.60;;;;;;;;;;4987031;28;98494;-72
2023/08/28 13:27:46;;;;;;;1.98;0.82;;;;;;;;;;4980706;28;100129;-72
2023/08/28 13:30:13;;;;;;;1.67;0.70;;;;;;;;;;4975984;28;100119;-71
2023/08/28 13:32:39;;;;;;;0.50;0.50;;;;;;;;;;5001677;28;99088;-71
2023/08/28 13:35:08;;;;;;;0.80;0.60;;;;;;;;;;4989161;28;100484;-71
2023/08/28 13:37:34;;;;;;;4.25;1.30;;;;;;;;;;4978173;28;100123;-71
2023/08/28 13:40:01;;;;;;;0.70;0.60;;;;;;;;;;4976399;28;100619;-71
2023/08/28 13:42:27;;;;;;;0.75;0.65;;;;;;;;;;4969998;28;100156;-71
2023/08/28 13:44:53;;;;;;;2.13;0.70;;;;;;;;;;4969471;28;99936;-71
2023/08/28 13:47:20;;;;;;;0.68;0.57;;;;;;;;;;4972252;28;99882;-71
2023/08/28 13:49:46;;;;;;;3.00;0.63;;;;;;;;;;4981950;28;100391;-71
2023/08/28 13:52:13;;;;;;;2.58;0.60;;;;;;;;;;4997256;28;100210;-71
2023/08/28 13:54:39;;;;;;;1.17;0.47;;;;;;;;;;4999971;28;99905;-71
2023/08/28 13:57:06;;;;;;;0.93;0.55;;;;;;;;;;4977133;28;99472;-71
2023/08/28 13:59:32;;;;;;;5.15;0.57;;;;;;;;;;4985138;28;100247;-70
2023/08/28 14:01:59;;;;;;;1.65;0.95;;;;;;;;;;4980223;28;99161;-71
2023/08/28 14:04:25;;;;;;;0.70;0.70;;;;;;;;;;4970565;28;100033;-71
2023/08/28 14:06:52;;;;;;;0.63;0.63;;;;;;;;;;4967759;28;100146;-71
2023/08/28 14:09:18;;;;;;;1.67;0.68;;;;;;;;;;4969459;28;100833;-71
2023/08/28 14:11:45;;;;;;;0.75;0.70;;;;;;;;;;4970408;28;99280;-73
2023/08/28 14:14:12;;;;;;;1.45;0.75;;;;;;;;;;4981016;28;99133;-72
2023/08/28 14:16:38;;;;;;;3.55;0.70;;;;;;;;;;4966663;28;99238;-72
2023/08/28 14:19:05;;;;;;;9.75;3.10;;;;;;;;;;4977849;28;101775;-71
2023/08/28 14:21:31;;;;;;;0.65;0.65;;;;;;;;;;4969185;28;99878;-70
2023/08/28 14:24:00;;;;;;;1.02;0.90;;;;;;;;;;4970431;28;99043;-70
2023/08/28 14:26:26;;;;;;;1.40;0.73;;;;;;;;;;4968094;28;99365;-71
2023/08/28 14:28:53;;;;;;;0.63;0.43;;;;;;;;;;4970236;28;100203;-72
2023/08/28 14:31:19;;;;;;;0.98;0.63;;;;;;;;;;4970174;28;99756;-70
2023/08/28 14:33:46;;;;;;;1.10;0.60;;;;;;;;;;4973398;28;101610;-70
2023/08/28 14:36:13;;;;;;;0.85;0.70;;;;;;;;;;4975533;28;100368;-71
2023/08/28 14:38:39;;;;;;;1.10;0.60;;;;;;;;;;4976334;28;98454;-70